Disney Wonder — C6QM8 — position and weather

sailwx.info

Track history (hours):
 
Tides and Currents Weather Stations Pressure Air Temp Water Temp Dewpoint Dewpoint Depression Visibility Wind Speed Wind Dir Waves Ship Positions

Disney Wonder

Last reported at 2017-Jun-26 16:58 UTC. Time now 2017-Jun-26 17:15 UTC.
Position N 49°17' W 123°07'.

Length 301 m; draft 8.2 m.

Type: Passenger vessel. MMSI: 308457000.

Date/timePositionNaut miles runAvg speedWind from/ knotsBaromVisibWave heightAir tempDewpointWater temp
2017-Jun-26 16:58N 49°17' W 123°07'0 0.0
2017-Jun-26 16:28N 49°17' W 123°07'0 0.0
2017-Jun-26 15:58N 49°17' W 123°07'0 0.0
2017-Jun-26 15:28N 49°17' W 123°07'0 0.0
2017-Jun-26 14:58N 49°17' W 123°07'0 0.1
2017-Jun-26 14:28N 49°17' W 123°07'1 0.7
2017-Jun-26 13:30N 49°18' W 123°06'3 7.0
2017-Jun-26 13:00N 49°19' W 123°11'5 9.3
2017-Jun-26 12:30N 49°18' W 123°19'5 9.1
2017-Jun-26 12:00N 49°17' W 123°25'5 9.3
2017-Jun-26 11:30N 49°18' W 123°32'5 9.0
2017-Jun-26 11:00N 49°19' W 123°39'5 9.1
2017-Jun-26 10:30N 49°20' W 123°46'5 9.4
2017-Jun-26 10:00N 49°22' W 123°52'4 8.6
2017-Jun-26 09:30N 49°25' W 123°58'4 7.8
2017-Jun-26 08:59N 49°27' W 124°03'8 7.3
2017-Jun-26 07:57N 49°34' W 124°08'4 8.3
2017-Jun-26 07:24N 49°38' W 124°12'3 8.2
2017-Jun-26 06:59N 49°40' W 124°15'4 8.7
2017-Jun-26 06:30N 49°43' W 124°20'4 8.5
2017-Jun-26 06:00N 49°45' W 124°26'4 8.3
2017-Jun-26 05:30N 49°47' W 124°32'4 7.8
2017-Jun-26 05:00N 49°51' W 124°34'41591.4
2017-Jun-26 05:00N 49°48' W 124°30'817.4 280 / 81009.010.8 19.015.610.0
2017-Jun-26 04:30N 49°54' W 124°39'611.4
2017-Jun-26 04:00N 49°58' W 124°46'816.1
2017-Jun-26 03:30N 50°00' W 124°58'815.6
2017-Jun-26 03:00N 49°57' W 125°09'612.5
2017-Jun-26 02:31N 50°03' W 125°14'713.8
2017-Jun-26 02:00N 50°08' W 125°21'714.7
2017-Jun-26 01:30N 50°15' W 125°23'5214.9
2017-Jun-25 22:02N 50°32' W 126°40'115.0
2017-Jun-25 22:00N 50°32' W 126°41'815.1
2017-Jun-25 21:29N 50°38' W 126°48'817.7
2017-Jun-25 21:00N 50°43' W 126°60'917.1
2017-Jun-25 20:30N 50°46' W 127°12'917.0
2017-Jun-25 20:00N 50°49' W 127°25'1019.4
2017-Jun-25 19:30N 50°54' W 127°38'1121.2
2017-Jun-25 19:00N 51°00' W 127°51'1121.5
2017-Jun-25 18:30N 51°06' W 128°06'1121.3
2017-Jun-25 18:01N 51°12' W 128°19'8458.7
2017-Jun-25 18:00N 51°06' W 128°12'1837.6 310 / 141018.010.8 13.0 9.1 9.0
2017-Jun-25 17:31N 51°21' W 128°29'1121.1
2017-Jun-25 17:00N 51°29' W 128°39'1020.7
2017-Jun-25 16:30N 51°37' W 128°49'1020.4
2017-Jun-25 16:00N 51°45' W 129°00'1021.0
2017-Jun-25 15:30N 51°53' W 129°10'35710.6
2017-Jun-24 06:00N 57°06' W 134°06'   260 / 141025.010.8 13.0 6.8 8.0
2017-Jun-21 14:00N 56°30' W 134°24'22115.8 160 / 121020.0 5.4 9.0 6.9 8.0
2017-Jun-21 00:00N 53°48' W 130°00'9221.0 160 / 121022.0 5.4 11.0 9.0 9.0
2017-Jun-20 19:37N 52°26' W 128°51'220.8
2017-Jun-20 19:30N 52°23' W 128°51'1020.6
2017-Jun-20 19:00N 52°13' W 128°55'1020.0
2017-Jun-20 18:30N 52°04' W 128°57'1020.5
2017-Jun-20 18:00N 51°54' W 128°52'1020.6
2017-Jun-20 17:31N 51°44' W 128°48'1020.5
2017-Jun-20 17:00N 51°34' W 128°43'1021.0
2017-Jun-20 16:30N 51°24' W 128°40'1019.5
2017-Jun-20 16:01N 51°15' W 128°32'1020.8
2017-Jun-20 15:30N 51°10' W 128°17'5622.4
2017-Jun-20 13:00N 50°42' W 127°00'6418.1 310 / 201019.0 5.4 11.0 6.8 9.0
2017-Jun-20 09:29N 50°20' W 125°26'817.1
2017-Jun-20 09:00N 50°12' W 125°22'612.2
2017-Jun-20 08:30N 50°07' W 125°19'510.7
2017-Jun-20 08:00N 50°02' W 125°14'610.5
2017-Jun-20 07:29N 49°58' W 125°10'4 8.6
2017-Jun-20 07:00N 49°55' W 125°05'5 9.6
2017-Jun-20 06:30N 49°51' W 125°00'5 9.5
2017-Jun-20 06:00N 49°48' W 124°55'5 9.4
2017-Jun-20 05:30N 49°45' W 124°50'5 9.6
2017-Jun-20 05:00N 49°41' W 124°44'5 9.9
2017-Jun-20 04:30N 49°38' W 124°39'5 9.7
2017-Jun-20 04:00N 49°34' W 124°34'510.2
2017-Jun-20 03:30N 49°30' W 124°30'2415.9
2017-Jun-20 02:00N 49°22' W 123°55'917.4
2017-Jun-20 01:30N 49°20' W 123°42'917.4
2017-Jun-20 01:00N 49°19' W 123°29'3245.4
2017-Jun-20 01:00N 49°18' W 123°24'611.7 350 / 41016.010.8 16.010.3 9.0
2017-Jun-20 00:30N 49°19' W 123°15'612.0
2017-Jun-20 00:00N 49°18' W 123°06'1 1.3
2017-Jun-19 23:28N 49°17' W 123°07'0 0.0
2017-Jun-19 22:58N 49°17' W 123°07'0 0.0
2017-Jun-19 22:28N 49°17' W 123°07'0 0.0
2017-Jun-19 21:58N 49°17' W 123°07'0 0.0
2017-Jun-19 21:28N 49°17' W 123°07'0 0.0
2017-Jun-19 20:58N 49°17' W 123°07'0 0.0
2017-Jun-19 20:28N 49°17' W 123°07'0 0.0
2017-Jun-19 19:58N 49°17' W 123°07'0 0.0
2017-Jun-19 19:28N 49°17' W 123°07'0 0.0
2017-Jun-19 18:58N 49°17' W 123°07'0 0.0
2017-Jun-19 18:29N 49°17' W 123°07'0 0.0
2017-Jun-19 18:01N 49°17' W 123°07'0 0.0
2017-Jun-19 17:31N 49°17' W 123°07'0 0.0
2017-Jun-19 17:01N 49°17' W 123°07'0 0.0
2017-Jun-19 16:30N 49°17' W 123°07'0 0.0
2017-Jun-19 16:01N 49°17' W 123°07'0 0.0
2017-Jun-19 15:30N 49°17' W 123°07'0 0.0
2017-Jun-19 15:00N 49°17' W 123°07'0 0.0
2017-Jun-19 14:01N 49°17' W 123°07'0 0.9
2017-Jun-19 13:30N 49°18' W 123°06'4 8.1
2017-Jun-19 13:00N 49°19' W 123°12'714.1
2017-Jun-19 12:30N 49°18' W 123°23'918.2
2017-Jun-19 12:01N 49°18' W 123°37'1018.2
2017-Jun-19 11:29N 49°20' W 123°51'2619.5
2017-Jun-19 10:10N 49°28' W 124°29'420.6
2017-Jun-19 09:58N 49°32' W 124°32'1021.3
2017-Jun-19 09:30N 49°39' W 124°42'1020.7
2017-Jun-19 09:01N 49°47' W 124°52'1121.8
2017-Jun-19 08:30N 49°55' W 125°05'918.4
2017-Jun-19 08:00N 50°02' W 125°13'510.9
2017-Jun-19 07:30N 50°06' W 125°18'611.3
2017-Jun-19 06:59N 50°12' W 125°22'714.1
2017-Jun-19 06:30N 50°18' W 125°25'7713.9
2017-Jun-19 01:00N 51°06' W 127°00'3713.9 100 / 301018.0 5.4 10.0 7.9 9.0
2017-Jun-18 22:21N 51°24' W 127°52'617.6
2017-Jun-18 22:00N 51°30' W 127°51'917.9
2017-Jun-18 21:30N 51°38' W 127°54'917.7
2017-Jun-18 21:00N 51°47' W 127°56'917.7
2017-Jun-18 20:30N 51°56' W 127°57'917.8
2017-Jun-18 20:00N 52°05' W 127°54'2010.9
2017-Jun-18 18:11N 52°15' W 128°22'316.9
2017-Jun-18 18:00N 52°15' W 128°27'917.2
2017-Jun-18 17:30N 52°14' W 128°41'917.1
2017-Jun-18 17:00N 52°12' W 128°54'5614.0
2017-Jun-18 13:00N 52°42' W 130°12'   060 / 121018.010.8 14.0 8.0 9.0
Track history (hours):
 
Tides and Currents Weather Stations Pressure Air Temp Water Temp Dewpoint Dewpoint Depression Visibility Wind Speed Wind Dir Waves Ship Positions

Disney Wonder

Last reported at 2017-Jun-26 16:58 UTC. Time now 2017-Jun-26 17:15 UTC.
Position N 49°17' W 123°07'.

Length 301 m; draft 8.2 m.

Type: Passenger vessel. MMSI: 308457000.

Date/timePositionNaut miles runAvg speedWind from/ knotsBaromVisibWave heightAir tempDewpointWater temp
2017-Jun-26 16:58N 49°17' W 123°07'0 0.0
2017-Jun-26 16:28N 49°17' W 123°07'0 0.0
2017-Jun-26 15:58N 49°17' W 123°07'0 0.0
2017-Jun-26 15:28N 49°17' W 123°07'0 0.0
2017-Jun-26 14:58N 49°17' W 123°07'0 0.1
2017-Jun-26 14:28N 49°17' W 123°07'1 0.7
2017-Jun-26 13:30N 49°18' W 123°06'3 7.0
2017-Jun-26 13:00N 49°19' W 123°11'5 9.3
2017-Jun-26 12:30N 49°18' W 123°19'5 9.1
2017-Jun-26 12:00N 49°17' W 123°25'5 9.3
2017-Jun-26 11:30N 49°18' W 123°32'5 9.0
2017-Jun-26 11:00N 49°19' W 123°39'5 9.1
2017-Jun-26 10:30N 49°20' W 123°46'5 9.4
2017-Jun-26 10:00N 49°22' W 123°52'4 8.6
2017-Jun-26 09:30N 49°25' W 123°58'4 7.8
2017-Jun-26 08:59N 49°27' W 124°03'8 7.3
2017-Jun-26 07:57N 49°34' W 124°08'4 8.3
2017-Jun-26 07:24N 49°38' W 124°12'3 8.2
2017-Jun-26 06:59N 49°40' W 124°15'4 8.7
2017-Jun-26 06:30N 49°43' W 124°20'4 8.5
2017-Jun-26 06:00N 49°45' W 124°26'4 8.3
2017-Jun-26 05:30N 49°47' W 124°32'4 7.8
2017-Jun-26 05:00N 49°51' W 124°34'41591.4
2017-Jun-26 05:00N 49°48' W 124°30'817.4 280 / 81009.010.8 19.015.610.0
2017-Jun-26 04:30N 49°54' W 124°39'611.4
2017-Jun-26 04:00N 49°58' W 124°46'816.1
2017-Jun-26 03:30N 50°00' W 124°58'815.6
2017-Jun-26 03:00N 49°57' W 125°09'612.5
2017-Jun-26 02:31N 50°03' W 125°14'713.8
2017-Jun-26 02:00N 50°08' W 125°21'714.7
2017-Jun-26 01:30N 50°15' W 125°23'5214.9
2017-Jun-25 22:02N 50°32' W 126°40'115.0
2017-Jun-25 22:00N 50°32' W 126°41'815.1
2017-Jun-25 21:29N 50°38' W 126°48'817.7
2017-Jun-25 21:00N 50°43' W 126°60'917.1
2017-Jun-25 20:30N 50°46' W 127°12'917.0
2017-Jun-25 20:00N 50°49' W 127°25'1019.4
2017-Jun-25 19:30N 50°54' W 127°38'1121.2
2017-Jun-25 19:00N 51°00' W 127°51'1121.5
2017-Jun-25 18:30N 51°06' W 128°06'1121.3
2017-Jun-25 18:01N 51°12' W 128°19'8458.7
2017-Jun-25 18:00N 51°06' W 128°12'1837.6 310 / 141018.010.8 13.0 9.1 9.0
2017-Jun-25 17:31N 51°21' W 128°29'1121.1
2017-Jun-25 17:00N 51°29' W 128°39'1020.7
2017-Jun-25 16:30N 51°37' W 128°49'1020.4
2017-Jun-25 16:00N 51°45' W 129°00'1021.0
2017-Jun-25 15:30N 51°53' W 129°10'35710.6
2017-Jun-24 06:00N 57°06' W 134°06'   260 / 141025.010.8 13.0 6.8 8.0
2017-Jun-21 14:00N 56°30' W 134°24'22115.8 160 / 121020.0 5.4 9.0 6.9 8.0
2017-Jun-21 00:00N 53°48' W 130°00'9221.0 160 / 121022.0 5.4 11.0 9.0 9.0
2017-Jun-20 19:37N 52°26' W 128°51'220.8
2017-Jun-20 19:30N 52°23' W 128°51'1020.6
2017-Jun-20 19:00N 52°13' W 128°55'1020.0
2017-Jun-20 18:30N 52°04' W 128°57'1020.5
2017-Jun-20 18:00N 51°54' W 128°52'1020.6
2017-Jun-20 17:31N 51°44' W 128°48'1020.5
2017-Jun-20 17:00N 51°34' W 128°43'1021.0
2017-Jun-20 16:30N 51°24' W 128°40'1019.5
2017-Jun-20 16:01N 51°15' W 128°32'1020.8
2017-Jun-20 15:30N 51°10' W 128°17'5622.4
2017-Jun-20 13:00N 50°42' W 127°00'6418.1 310 / 201019.0 5.4 11.0 6.8 9.0
2017-Jun-20 09:29N 50°20' W 125°26'817.1
2017-Jun-20 09:00N 50°12' W 125°22'612.2
2017-Jun-20 08:30N 50°07' W 125°19'510.7
2017-Jun-20 08:00N 50°02' W 125°14'610.5
2017-Jun-20 07:29N 49°58' W 125°10'4 8.6
2017-Jun-20 07:00N 49°55' W 125°05'5 9.6
2017-Jun-20 06:30N 49°51' W 125°00'5 9.5
2017-Jun-20 06:00N 49°48' W 124°55'5 9.4
2017-Jun-20 05:30N 49°45' W 124°50'5 9.6
2017-Jun-20 05:00N 49°41' W 124°44'5 9.9
2017-Jun-20 04:30N 49°38' W 124°39'5 9.7
2017-Jun-20 04:00N 49°34' W 124°34'510.2
2017-Jun-20 03:30N 49°30' W 124°30'2415.9
2017-Jun-20 02:00N 49°22' W 123°55'917.4
2017-Jun-20 01:30N 49°20' W 123°42'917.4
2017-Jun-20 01:00N 49°19' W 123°29'3245.4
2017-Jun-20 01:00N 49°18' W 123°24'611.7 350 / 41016.010.8 16.010.3 9.0
2017-Jun-20 00:30N 49°19' W 123°15'612.0
2017-Jun-20 00:00N 49°18' W 123°06'1 1.3
2017-Jun-19 23:28N 49°17' W 123°07'0 0.0
2017-Jun-19 22:58N 49°17' W 123°07'0 0.0
2017-Jun-19 22:28N 49°17' W 123°07'0 0.0
2017-Jun-19 21:58N 49°17' W 123°07'0 0.0
2017-Jun-19 21:28N 49°17' W 123°07'0 0.0
2017-Jun-19 20:58N 49°17' W 123°07'0 0.0
2017-Jun-19 20:28N 49°17' W 123°07'0 0.0
2017-Jun-19 19:58N 49°17' W 123°07'0 0.0
2017-Jun-19 19:28N 49°17' W 123°07'0 0.0
2017-Jun-19 18:58N 49°17' W 123°07'0 0.0
2017-Jun-19 18:29N 49°17' W 123°07'0 0.0
2017-Jun-19 18:01N 49°17' W 123°07'0 0.0
2017-Jun-19 17:31N 49°17' W 123°07'0 0.0
2017-Jun-19 17:01N 49°17' W 123°07'0 0.0
2017-Jun-19 16:30N 49°17' W 123°07'0 0.0
2017-Jun-19 16:01N 49°17' W 123°07'0 0.0
2017-Jun-19 15:30N 49°17' W 123°07'0 0.0
2017-Jun-19 15:00N 49°17' W 123°07'0 0.0
2017-Jun-19 14:01N 49°17' W 123°07'0 0.9
2017-Jun-19 13:30N 49°18' W 123°06'4 8.1
2017-Jun-19 13:00N 49°19' W 123°12'714.1
2017-Jun-19 12:30N 49°18' W 123°23'918.2
2017-Jun-19 12:01N 49°18' W 123°37'1018.2
2017-Jun-19 11:29N 49°20' W 123°51'2619.5
2017-Jun-19 10:10N 49°28' W 124°29'420.6
2017-Jun-19 09:58N 49°32' W 124°32'1021.3
2017-Jun-19 09:30N 49°39' W 124°42'1020.7
2017-Jun-19 09:01N 49°47' W 124°52'1121.8
2017-Jun-19 08:30N 49°55' W 125°05'918.4
2017-Jun-19 08:00N 50°02' W 125°13'510.9
2017-Jun-19 07:30N 50°06' W 125°18'611.3
2017-Jun-19 06:59N 50°12' W 125°22'714.1
2017-Jun-19 06:30N 50°18' W 125°25'7713.9
2017-Jun-19 01:00N 51°06' W 127°00'3713.9 100 / 301018.0 5.4 10.0 7.9 9.0
2017-Jun-18 22:21N 51°24' W 127°52'617.6
2017-Jun-18 22:00N 51°30' W 127°51'917.9
2017-Jun-18 21:30N 51°38' W 127°54'917.7
2017-Jun-18 21:00N 51°47' W 127°56'917.7
2017-Jun-18 20:30N 51°56' W 127°57'917.8
2017-Jun-18 20:00N 52°05' W 127°54'2010.9
2017-Jun-18 18:11N 52°15' W 128°22'316.9
2017-Jun-18 18:00N 52°15' W 128°27'917.2
2017-Jun-18 17:30N 52°14' W 128°41'917.1
2017-Jun-18 17:00N 52°12' W 128°54'5614.0
2017-Jun-18 13:00N 52°42' W 130°12'   060 / 121018.010.8 14.0 8.0 9.0

Dump ship's entire track history